createdAt,value
2023-02-16T00:01:27.862Z,41.15
2023-02-16T00:03:59.128Z,41.00
2023-02-16T00:06:30.196Z,39.00
2023-02-16T00:08:58.444Z,40.40
2023-02-16T00:11:49.360Z,39.97
2023-02-16T00:14:17.890Z,39.40
2023-02-16T00:16:45.902Z,39.03
2023-02-16T00:19:20.654Z,38.75
2023-02-16T00:21:51.968Z,41.13
2023-02-16T00:24:20.926Z,40.08
2023-02-16T00:26:50.273Z,39.95
2023-02-16T00:29:23.985Z,40.90
2023-02-16T00:31:52.946Z,39.55
2023-02-16T00:34:33.571Z,40.45
2023-02-16T00:37:05.527Z,40.92
2023-02-16T00:39:33.937Z,39.97
2023-02-16T00:42:04.633Z,40.72
2023-02-16T00:44:37.124Z,39.42
2023-02-16T00:47:18.745Z,39.00
2023-02-16T00:49:46.926Z,38.40
2023-02-16T00:52:34.472Z,39.53
2023-02-16T00:55:04.177Z,40.60
2023-02-16T00:57:35.076Z,38.42
2023-02-16T01:00:06.445Z,41.60
2023-02-16T01:02:34.681Z,37.78
2023-02-16T01:05:02.919Z,40.35
2023-02-16T01:07:50.822Z,41.58
2023-02-16T01:10:37.439Z,39.58
2023-02-16T01:13:06.110Z,41.03
2023-02-16T01:15:36.201Z,40.53
2023-02-16T01:18:04.616Z,39.95
2023-02-16T01:20:38.456Z,38.95
2023-02-16T01:23:10.999Z,39.25
2023-02-16T01:25:43.512Z,40.97
2023-02-16T01:28:19.672Z,39.83
2023-02-16T01:30:47.908Z,40.92
2023-02-16T01:33:16.227Z,41.42
2023-02-16T01:35:44.260Z,41.92
2023-02-16T01:38:18.883Z,39.95
2023-02-16T01:40:57.559Z,39.53
2023-02-16T01:43:30.522Z,40.47
2023-02-16T01:46:03.507Z,43.08
2023-02-16T01:48:32.889Z,39.38
2023-02-16T01:51:08.179Z,40.40
2023-02-16T01:53:43.144Z,39.92
2023-02-16T01:56:33.627Z,39.67
2023-02-16T01:59:05.693Z,41.72
2023-02-16T02:01:42.636Z,40.80
2023-02-16T02:04:39.377Z,39.05
2023-02-16T02:07:08.065Z,39.05
2023-02-16T02:09:43.051Z,40.95
2023-02-16T02:12:20.172Z,41.33
2023-02-16T02:14:49.293Z,41.38
2023-02-16T02:17:21.516Z,40.47
2023-02-16T02:20:00.244Z,41.08
2023-02-16T02:23:22.024Z,39.78
2023-02-16T02:26:25.318Z,39.42
2023-02-16T02:29:07.416Z,39.13
2023-02-16T02:31:48.787Z,39.97
2023-02-16T02:34:25.253Z,39.15
2023-02-16T02:37:05.253Z,40.92
2023-02-16T02:39:41.055Z,40.08
2023-02-16T02:42:14.807Z,39.15
2023-02-16T02:44:54.436Z,39.78
2023-02-16T02:47:22.894Z,41.30
2023-02-16T02:49:52.563Z,40.90
2023-02-16T02:52:20.937Z,41.08
2023-02-16T02:55:08.226Z,40.13
2023-02-16T02:58:00.474Z,38.97
2023-02-16T03:00:44.034Z,39.58
2023-02-16T03:03:17.554Z,39.92
2023-02-16T03:05:49.109Z,40.95
2023-02-16T03:08:19.889Z,40.17
2023-02-16T03:11:08.840Z,40.08
2023-02-16T03:13:40.910Z,37.90
2023-02-16T03:16:14.439Z,38.63
2023-02-16T03:21:48.380Z,38.28
2023-02-16T03:24:39.449Z,39.30
2023-02-16T03:27:26.618Z,40.35
2023-02-16T03:29:57.059Z,38.15
2023-02-16T03:32:26.653Z,42.40
2023-02-16T03:34:54.850Z,39.67
2023-02-16T03:37:22.881Z,37.58
2023-02-16T03:40:09.810Z,39.40
2023-02-16T03:42:37.895Z,39.38
2023-02-16T03:45:07.346Z,39.20
2023-02-16T03:47:37.130Z,37.65
2023-02-16T03:50:06.358Z,40.75
2023-02-16T03:52:34.387Z,40.65
2023-02-16T03:55:02.577Z,39.45
2023-02-16T03:57:30.754Z,40.65
2023-02-16T03:59:59.448Z,39.28
2023-02-16T04:02:28.904Z,38.47
2023-02-16T04:04:58.500Z,40.75
2023-02-16T04:07:26.656Z,41.90
2023-02-16T04:09:54.743Z,38.13
2023-02-16T04:12:37.973Z,39.28
2023-02-16T04:15:08.370Z,39.95
2023-02-16T04:17:36.559Z,39.22
2023-02-16T04:20:07.110Z,40.53
2023-02-16T04:22:34.966Z,39.70
2023-02-16T04:25:03.129Z,39.65
2023-02-16T04:27:31.148Z,40.78
2023-02-16T04:29:59.550Z,40.75
2023-02-16T04:32:27.661Z,39.35
2023-02-16T04:34:55.984Z,40.08
2023-02-16T04:37:25.754Z,40.75
2023-02-16T04:39:53.841Z,40.20
2023-02-16T04:42:21.933Z,39.72
2023-02-16T04:44:50.167Z,43.08
2023-02-16T04:47:18.389Z,40.35
2023-02-16T04:49:48.091Z,39.83
2023-02-16T04:52:17.965Z,39.38
2023-02-16T04:54:47.368Z,40.00
2023-02-16T04:57:15.569Z,41.83
2023-02-16T04:59:43.536Z,39.85
2023-02-16T05:02:11.653Z,40.15
2023-02-16T05:04:39.741Z,40.40
2023-02-16T05:07:07.779Z,39.55
2023-02-16T05:09:35.845Z,43.28
2023-02-16T05:12:22.900Z,38.80
2023-02-16T05:14:51.470Z,39.92
2023-02-16T05:17:21.358Z,41.92
2023-02-16T05:19:51.118Z,40.45
2023-02-16T05:22:19.735Z,40.70
2023-02-16T05:24:48.108Z,38.70
2023-02-16T05:27:19.350Z,42.35
2023-02-16T05:29:47.761Z,38.33
2023-02-16T05:32:16.328Z,41.17
2023-02-16T05:34:45.598Z,40.45
2023-02-16T05:37:13.843Z,42.10
2023-02-16T05:39:41.853Z,39.67
2023-02-16T05:42:10.325Z,41.20
2023-02-16T05:44:39.854Z,41.00
2023-02-16T05:47:07.958Z,41.60
2023-02-16T05:49:35.981Z,40.30
2023-02-16T05:52:04.235Z,40.70
2023-02-16T05:54:32.077Z,43.30
2023-02-16T05:57:00.111Z,41.08
2023-02-16T05:59:28.104Z,41.00
2023-02-16T06:01:57.528Z,40.75
2023-02-16T06:04:25.508Z,39.78
2023-02-16T06:06:53.574Z,41.60
2023-02-16T06:09:21.758Z,42.45
2023-02-16T06:11:49.745Z,41.35
2023-02-16T06:14:20.192Z,42.80
2023-02-16T06:16:50.044Z,42.15
2023-02-16T06:19:20.688Z,42.08
2023-02-16T06:21:49.391Z,40.83
2023-02-16T06:24:19.630Z,40.67
2023-02-16T06:26:47.560Z,42.50
2023-02-16T06:29:15.423Z,40.20
2023-02-16T06:31:43.478Z,43.92
2023-02-16T06:34:11.435Z,43.20
2023-02-16T06:36:42.525Z,40.17
2023-02-16T06:39:11.298Z,45.20
2023-02-16T06:41:40.514Z,42.05
2023-02-16T06:44:12.409Z,43.17
2023-02-16T06:46:40.955Z,41.38
2023-02-16T06:49:08.990Z,43.80
2023-02-16T06:51:36.958Z,42.38
2023-02-16T06:54:06.495Z,41.55
2023-02-16T06:56:36.746Z,45.83
2023-02-16T06:59:06.602Z,40.83
2023-02-16T07:01:35.289Z,44.20
2023-02-16T07:04:03.596Z,41.47
2023-02-16T07:06:32.181Z,42.83
2023-02-16T07:09:00.725Z,42.67
2023-02-16T07:11:30.210Z,40.45
2023-02-16T07:13:58.331Z,43.97
2023-02-16T07:16:26.436Z,44.05
2023-02-16T07:18:54.854Z,43.88
2023-02-16T07:21:23.438Z,43.30
2023-02-16T07:23:52.172Z,41.95
2023-02-16T07:26:20.444Z,43.03
2023-02-16T07:28:50.063Z,43.88
2023-02-16T07:31:18.504Z,43.00
2023-02-16T07:33:47.272Z,42.83
2023-02-16T07:36:15.727Z,43.63
2023-02-16T07:38:43.875Z,44.25
2023-02-16T07:41:12.487Z,43.38
2023-02-16T07:43:42.916Z,42.83
2023-02-16T07:46:12.627Z,43.25
2023-02-16T07:48:40.672Z,44.55
2023-02-16T07:51:08.949Z,42.63
2023-02-16T07:53:37.062Z,43.60
2023-02-16T07:56:05.720Z,44.60
2023-02-16T07:58:33.789Z,43.25
2023-02-16T08:01:09.538Z,44.10
2023-02-16T08:03:39.698Z,44.42
2023-02-16T08:06:09.061Z,44.60
2023-02-16T08:08:37.760Z,44.58
2023-02-16T08:11:11.232Z,44.47
2023-02-16T08:16:11.238Z,42.03
2023-02-16T08:18:42.365Z,42.58
2023-02-16T08:21:14.838Z,45.47
2023-02-16T08:23:47.479Z,43.53
2023-02-16T08:26:17.138Z,42.55
2023-02-16T08:28:47.080Z,45.10
2023-02-16T08:31:16.980Z,44.40
2023-02-16T08:33:47.682Z,43.45
2023-02-16T08:36:19.692Z,42.42
2023-02-16T08:38:50.181Z,44.75
2023-02-16T08:41:18.642Z,43.17
2023-02-16T08:43:46.877Z,44.88
2023-02-16T08:46:15.442Z,45.38
2023-02-16T08:48:43.895Z,44.60
2023-02-16T08:51:17.677Z,45.22
2023-02-16T08:53:46.749Z,44.65
2023-02-16T08:56:16.858Z,43.42
2023-02-16T08:58:44.928Z,43.90
2023-02-16T09:01:15.400Z,45.80
2023-02-16T09:03:45.138Z,40.58
2023-02-16T09:06:16.338Z,41.72
2023-02-16T09:08:46.639Z,42.80
2023-02-16T09:11:16.625Z,43.20
2023-02-16T09:13:44.724Z,43.72
2023-02-16T09:16:15.783Z,44.20
2023-02-16T09:18:44.934Z,42.58
2023-02-16T09:21:17.102Z,44.90
2023-02-16T09:23:48.108Z,44.83
2023-02-16T09:26:17.128Z,44.75
2023-02-16T09:28:47.279Z,45.15
2023-02-16T09:31:17.165Z,43.65
2023-02-16T09:33:45.710Z,45.58
2023-02-16T09:36:15.160Z,44.30
2023-02-16T09:38:43.562Z,44.83
2023-02-16T09:41:29.293Z,42.92
2023-02-16T09:44:00.907Z,45.47
2023-02-16T09:46:31.518Z,44.00
2023-02-16T09:49:02.361Z,45.38
2023-02-16T09:51:37.417Z,45.50
2023-02-16T09:54:21.413Z,45.28
2023-02-16T09:56:56.890Z,48.05
2023-02-16T09:59:43.155Z,43.92
2023-02-16T10:02:31.014Z,44.20
2023-02-16T10:05:17.399Z,46.60
2023-02-16T10:07:57.515Z,44.78
2023-02-16T10:10:31.363Z,45.22
2023-02-16T10:13:05.848Z,44.17
2023-02-16T10:15:36.290Z,46.70
2023-02-16T10:18:10.036Z,43.95
2023-02-16T10:23:23.119Z,45.10
2023-02-16T10:25:59.337Z,44.88
2023-02-16T10:28:38.244Z,46.13
2023-02-16T10:31:15.845Z,47.47
2023-02-16T10:33:46.703Z,45.45
2023-02-16T10:36:28.959Z,47.05
2023-02-16T10:39:08.719Z,45.72
2023-02-16T10:41:42.191Z,45.50
2023-02-16T10:44:16.760Z,45.83
2023-02-16T10:46:48.981Z,45.25
2023-02-16T10:49:18.593Z,46.35
2023-02-16T10:51:50.660Z,45.38
2023-02-16T10:54:23.960Z,48.55
2023-02-16T10:56:54.493Z,46.55
2023-02-16T10:59:24.375Z,49.28
2023-02-16T11:01:54.594Z,46.00
2023-02-16T11:04:38.476Z,51.22
2023-02-16T11:07:09.285Z,44.72
2023-02-16T11:09:40.184Z,49.03
2023-02-16T11:12:28.372Z,49.10
2023-02-16T11:15:01.253Z,44.58
2023-02-16T11:17:29.820Z,48.55
2023-02-16T11:20:02.150Z,47.40
2023-02-16T11:22:33.630Z,50.80
2023-02-16T11:25:30.298Z,47.88
2023-02-16T11:28:02.038Z,48.45
2023-02-16T11:30:34.917Z,50.35
2023-02-16T11:33:07.084Z,48.22
2023-02-16T11:35:43.828Z,46.80
2023-02-16T11:38:28.510Z,48.45
2023-02-16T11:40:59.792Z,49.33
2023-02-16T11:43:30.345Z,47.60
2023-02-16T11:46:01.267Z,47.53
2023-02-16T11:48:32.668Z,49.65
2023-02-16T11:51:03.499Z,49.13
2023-02-16T11:53:34.060Z,48.47
2023-02-16T11:56:31.374Z,49.35
2023-02-16T11:59:16.912Z,49.83
2023-02-16T12:01:59.116Z,50.70
2023-02-16T12:04:48.977Z,50.90
2023-02-16T12:07:27.643Z,50.72
2023-02-16T12:10:06.211Z,49.70
2023-02-16T12:12:48.556Z,51.65
2023-02-16T12:15:25.997Z,49.35
2023-02-16T12:18:16.304Z,52.65
2023-02-16T12:20:51.912Z,53.03
2023-02-16T12:23:34.729Z,51.63
2023-02-16T12:26:16.948Z,51.63
2023-02-16T12:28:51.875Z,50.42
2023-02-16T12:31:27.062Z,51.03
2023-02-16T12:34:03.882Z,49.25
2023-02-16T12:36:47.411Z,48.53
2023-02-16T12:39:23.371Z,46.45
2023-02-16T12:42:02.005Z,44.97
2023-02-16T12:44:37.382Z,43.35
2023-02-16T12:47:12.886Z,40.72
2023-02-16T12:49:48.688Z,40.00
2023-02-16T12:52:29.492Z,39.78
2023-02-16T12:55:04.294Z,40.15
2023-02-16T12:57:33.332Z,39.90
2023-02-16T13:00:11.501Z,38.45
2023-02-16T13:02:44.603Z,38.38
2023-02-16T13:05:19.304Z,39.15
2023-02-16T13:07:50.175Z,39.38
2023-02-16T13:10:24.323Z,38.80
2023-02-16T13:12:58.956Z,41.08
2023-02-16T13:15:36.591Z,38.15
2023-02-16T13:18:11.950Z,37.35
2023-02-16T13:20:42.555Z,36.22
2023-02-16T13:23:51.276Z,37.03
2023-02-16T13:26:33.652Z,35.70
2023-02-16T13:29:23.261Z,35.28
2023-02-16T13:32:09.418Z,32.70
2023-02-16T13:35:14.744Z,32.60
2023-02-16T13:38:06.070Z,31.00
2023-02-16T13:41:06.694Z,31.23
2023-02-16T13:43:37.799Z,29.70
2023-02-16T13:46:12.268Z,34.15
2023-02-16T13:48:49.717Z,30.88
2023-02-16T13:51:20.805Z,28.95
2023-02-16T13:53:55.815Z,27.08
2023-02-16T13:56:36.268Z,26.27
2023-02-16T13:59:41.682Z,26.60
2023-02-16T14:02:14.139Z,24.10
2023-02-16T14:05:04.247Z,21.75
2023-02-16T14:07:36.013Z,20.80
2023-02-16T14:10:04.653Z,20.75
2023-02-16T14:12:38.350Z,20.90
2023-02-16T14:15:19.635Z,22.13
2023-02-16T14:17:48.000Z,22.80
2023-02-16T14:20:38.542Z,22.52
2023-02-16T14:23:09.618Z,23.27
2023-02-16T14:25:40.247Z,22.00
2023-02-16T14:28:56.204Z,21.42
2023-02-16T14:31:26.269Z,22.10
2023-02-16T14:34:04.466Z,23.65
2023-02-16T14:36:34.813Z,24.20
2023-02-16T14:39:03.656Z,24.40
2023-02-16T14:41:34.177Z,25.05
2023-02-16T14:44:34.474Z,23.67
2023-02-16T14:47:19.573Z,22.38
2023-02-16T14:50:13.310Z,21.95
2023-02-16T14:53:09.640Z,22.77
2023-02-16T14:56:10.391Z,22.98
2023-02-16T14:58:48.616Z,23.02
2023-02-16T15:01:19.143Z,23.42
2023-02-16T15:03:48.827Z,23.05
2023-02-16T15:06:27.032Z,22.55
2023-02-16T15:08:59.919Z,24.17
2023-02-16T15:11:34.258Z,22.87
2023-02-16T15:14:11.141Z,24.45
2023-02-16T15:16:42.125Z,26.13
2023-02-16T15:19:18.066Z,25.23
2023-02-16T15:21:46.160Z,25.20
2023-02-16T15:24:25.225Z,28.02
2023-02-16T15:27:01.676Z,28.00
2023-02-16T15:29:30.517Z,29.75
2023-02-16T15:32:00.553Z,31.10
2023-02-16T15:34:33.377Z,29.90
2023-02-16T15:37:03.247Z,31.30
2023-02-16T15:39:48.255Z,30.67
2023-02-16T15:42:23.714Z,30.10
2023-02-16T15:44:52.123Z,31.00
2023-02-16T15:47:24.835Z,32.70
2023-02-16T15:49:53.954Z,31.98
2023-02-16T15:52:29.842Z,33.03
2023-02-16T15:55:01.735Z,34.42
2023-02-16T15:57:32.297Z,33.60
2023-02-16T16:00:03.885Z,33.25
2023-02-16T16:02:43.745Z,33.15
2023-02-16T16:05:23.993Z,34.20
2023-02-16T16:07:52.836Z,35.45
2023-02-16T16:10:27.024Z,38.05
2023-02-16T16:12:58.970Z,39.55
2023-02-16T16:15:30.278Z,41.05
2023-02-16T16:18:00.928Z,39.78
2023-02-16T16:20:31.396Z,43.80
2023-02-16T16:23:05.038Z,44.92
2023-02-16T16:25:43.483Z,45.30
2023-02-16T16:28:14.447Z,41.72
2023-02-16T16:30:45.188Z,46.25
2023-02-16T16:33:17.113Z,48.65
2023-02-16T16:35:47.035Z,45.75
2023-02-16T16:38:27.239Z,46.95
2023-02-16T16:41:00.125Z,47.88
2023-02-16T16:43:30.878Z,47.23
2023-02-16T16:46:13.870Z,45.97
2023-02-16T16:48:45.073Z,48.13
2023-02-16T16:51:15.630Z,46.22
2023-02-16T16:53:53.318Z,48.10
2023-02-16T16:56:23.591Z,48.30
2023-02-16T16:58:53.792Z,46.22
2023-02-16T17:01:22.558Z,48.92
2023-02-16T17:03:50.707Z,47.25
2023-02-16T17:06:19.944Z,50.65
2023-02-16T17:08:49.631Z,47.55
2023-02-16T17:11:25.826Z,48.35
2023-02-16T17:13:57.084Z,50.45
2023-02-16T17:16:29.173Z,47.53
2023-02-16T17:18:57.506Z,47.95
2023-02-16T17:21:25.914Z,48.38
2023-02-16T17:23:54.324Z,48.60
2023-02-16T17:26:24.931Z,48.45
2023-02-16T17:28:53.238Z,49.03
2023-02-16T17:31:21.484Z,48.25
2023-02-16T17:33:50.174Z,48.08
2023-02-16T17:36:20.703Z,48.38
2023-02-16T17:38:50.397Z,49.22
2023-02-16T17:41:22.048Z,50.10
2023-02-16T17:43:51.932Z,47.22
2023-02-16T17:46:21.796Z,47.70
2023-02-16T17:48:53.569Z,47.95
2023-02-16T17:51:25.592Z,47.15
2023-02-16T17:53:55.304Z,46.53
2023-02-16T18:00:19.244Z,45.70
2023-02-16T18:02:48.243Z,46.40
2023-02-16T18:05:17.145Z,47.17
2023-02-16T18:07:45.460Z,46.72
2023-02-16T18:10:32.834Z,44.95
2023-02-16T18:13:01.413Z,44.50
2023-02-16T18:15:31.341Z,44.47
2023-02-16T18:17:59.698Z,44.80
2023-02-16T18:20:28.703Z,43.92
2023-02-16T18:22:57.114Z,44.67
2023-02-16T18:25:25.349Z,45.72
2023-02-16T18:27:53.847Z,42.15
2023-02-16T18:30:22.869Z,43.95
2023-02-16T18:32:52.716Z,42.45
2023-02-16T18:35:21.361Z,44.75
2023-02-16T18:37:50.943Z,43.20
2023-02-16T18:40:21.061Z,44.42
2023-02-16T18:42:49.298Z,43.17
2023-02-16T18:45:18.295Z,44.13
2023-02-16T18:47:46.390Z,42.85
2023-02-16T18:50:16.360Z,42.20
2023-02-16T18:52:45.035Z,44.38
2023-02-16T18:55:15.456Z,43.95
2023-02-16T18:57:43.954Z,43.67
2023-02-16T19:00:15.182Z,42.10
2023-02-16T19:02:44.066Z,39.85
2023-02-16T19:05:13.146Z,42.22
2023-02-16T19:07:43.814Z,39.55
2023-02-16T19:10:12.882Z,39.92
2023-02-16T19:12:41.984Z,37.65
2023-02-16T19:15:11.904Z,37.97
2023-02-16T19:17:40.268Z,38.10
2023-02-16T19:20:12.368Z,37.05
2023-02-16T19:22:41.253Z,36.60
2023-02-16T19:25:11.709Z,35.90
2023-02-16T19:27:39.867Z,37.17
2023-02-16T19:30:10.059Z,36.10
2023-02-16T19:32:41.051Z,35.53
2023-02-16T19:35:11.661Z,35.03
2023-02-16T19:37:40.528Z,36.38
2023-02-16T19:40:13.869Z,34.10
2023-02-16T19:42:42.539Z,33.60
2023-02-16T19:45:11.816Z,33.65
2023-02-16T19:47:40.427Z,33.72
2023-02-16T19:50:09.024Z,32.45
2023-02-16T19:52:37.204Z,32.25
2023-02-16T19:55:06.549Z,31.83
2023-02-16T19:57:35.912Z,32.13
2023-02-16T20:00:05.881Z,31.13
2023-02-16T20:02:40.273Z,31.75
2023-02-16T20:05:09.964Z,31.60
2023-02-16T20:07:38.079Z,31.10
2023-02-16T20:10:08.168Z,29.58
2023-02-16T20:12:37.694Z,31.45
2023-02-16T20:15:08.100Z,30.05
2023-02-16T20:17:36.417Z,29.95
2023-02-16T20:20:05.669Z,28.27
2023-02-16T20:22:34.193Z,29.02
2023-02-16T20:25:02.627Z,28.35
2023-02-16T20:27:31.282Z,27.33
2023-02-16T20:30:03.160Z,27.52
2023-02-16T20:32:31.592Z,27.20
2023-02-16T20:35:00.237Z,26.45
2023-02-16T20:37:28.357Z,26.95
2023-02-16T20:39:56.782Z,26.02
2023-02-16T20:42:24.999Z,25.67
2023-02-16T20:44:53.551Z,23.38
2023-02-16T20:47:23.201Z,24.65
2023-02-16T20:49:51.590Z,23.27
2023-02-16T20:52:20.468Z,22.52
2023-02-16T20:54:49.096Z,23.40
2023-02-16T20:57:26.482Z,21.42
2023-02-16T20:59:55.991Z,24.90
2023-02-16T21:02:26.062Z,23.10
2023-02-16T21:04:54.582Z,20.77
2023-02-16T21:07:23.166Z,20.90
2023-02-16T21:09:51.377Z,20.92
2023-02-16T21:12:19.464Z,21.60
2023-02-16T21:14:47.753Z,21.42
2023-02-16T21:17:15.751Z,20.02
2023-02-16T21:19:45.693Z,19.75
2023-02-16T21:22:13.692Z,20.52
2023-02-16T21:24:43.283Z,19.27
2023-02-16T21:27:12.711Z,18.85
2023-02-16T21:29:41.014Z,19.15
2023-02-16T21:32:09.215Z,18.38
2023-02-16T21:34:38.052Z,18.08
2023-02-16T21:37:07.977Z,18.35
2023-02-16T21:39:53.488Z,16.98
2023-02-16T21:42:21.388Z,17.20
2023-02-16T21:45:10.394Z,16.00
2023-02-16T21:47:56.014Z,16.17
2023-02-16T21:50:24.802Z,16.38
2023-02-16T21:52:54.795Z,17.25
2023-02-16T21:55:41.296Z,15.45
2023-02-16T21:58:10.751Z,14.50
2023-02-16T22:00:39.365Z,15.15
2023-02-16T22:03:08.960Z,15.02
2023-02-16T22:05:37.617Z,13.52
2023-02-16T22:08:07.627Z,14.77
2023-02-16T22:10:35.934Z,13.88
2023-02-16T22:13:04.353Z,14.10
2023-02-16T22:15:32.625Z,12.75
2023-02-16T22:18:00.559Z,13.13
2023-02-16T22:20:29.072Z,13.07
2023-02-16T22:22:57.515Z,13.80
2023-02-16T22:25:27.096Z,13.30
2023-02-16T22:27:55.169Z,13.27
2023-02-16T22:30:23.481Z,12.30
2023-02-16T22:32:51.998Z,11.38
2023-02-16T22:35:20.044Z,12.55
2023-02-16T22:37:48.119Z,12.65
2023-02-16T22:40:16.671Z,12.32
2023-02-16T22:42:46.251Z,12.30
2023-02-16T22:45:14.271Z,12.32
2023-02-16T22:47:42.825Z,11.88
2023-02-16T22:50:12.711Z,12.38
2023-02-16T22:52:40.682Z,12.25
2023-02-16T22:55:09.838Z,12.20
2023-02-16T22:57:38.947Z,13.10
2023-02-16T23:00:12.933Z,12.07
2023-02-16T23:02:41.044Z,12.30
2023-02-16T23:05:09.448Z,11.73
2023-02-16T23:07:37.566Z,13.07
2023-02-16T23:10:06.860Z,12.93
2023-02-16T23:12:35.127Z,12.00
2023-02-16T23:15:03.733Z,12.38
2023-02-16T23:17:33.416Z,12.15
2023-02-16T23:20:01.473Z,12.65
2023-02-16T23:22:30.810Z,12.98
2023-02-16T23:25:13.930Z,13.43
2023-02-16T23:27:41.983Z,13.63
2023-02-16T23:30:11.710Z,13.85
2023-02-16T23:32:41.319Z,14.05
2023-02-16T23:35:09.313Z,13.45
2023-02-16T23:37:38.502Z,14.73
2023-02-16T23:40:08.047Z,15.63
2023-02-16T23:42:36.447Z,14.98
2023-02-16T23:45:05.376Z,16.30
2023-02-16T23:47:33.433Z,16.10
2023-02-16T23:50:02.820Z,16.50
2023-02-16T23:52:30.768Z,16.52
2023-02-16T23:54:58.664Z,17.88
2023-02-16T23:57:26.551Z,18.15
2023-02-16T23:59:54.604Z,19.67
